sensor_id;sensor_type;location;lat;lon;timestamp;pressure;altitude;pressure_sealevel;temperature;humidity
28027;BME280;15344;52.342;-1.290;2023-06-22T00:02:15;100427.06;;;23.15;77.05
28027;BME280;15344;52.342;-1.290;2023-06-22T00:04:40;100425.47;;;23.00;78.09
28027;BME280;15344;52.342;-1.290;2023-06-22T00:07:06;100424.61;;;23.26;76.56
28027;BME280;15344;52.342;-1.290;2023-06-22T00:09:31;100424.11;;;23.35;76.42
28027;BME280;15344;52.342;-1.290;2023-06-22T00:11:55;100426.56;;;22.88;78.89
28027;BME280;15344;52.342;-1.290;2023-06-22T00:14:21;100428.48;;;23.39;76.48
28027;BME280;15344;52.342;-1.290;2023-06-22T00:16:46;100431.70;;;23.08;77.13
28027;BME280;15344;52.342;-1.290;2023-06-22T00:19:11;100436.56;;;23.36;76.06
28027;BME280;15344;52.342;-1.290;2023-06-22T00:21:36;100439.08;;;23.46;76.74
28027;BME280;15344;52.342;-1.290;2023-06-22T00:24:01;100438.83;;;23.01;78.45
28027;BME280;15344;52.342;-1.290;2023-06-22T00:26:26;100433.95;;;23.53;77.49
28027;BME280;15344;52.342;-1.290;2023-06-22T00:28:52;100435.72;;;23.29;78.29
28027;BME280;15344;52.342;-1.290;2023-06-22T00:31:18;100437.28;;;23.32;77.50
28027;BME280;15344;52.342;-1.290;2023-06-22T00:33:42;100434.78;;;23.51;76.52
28027;BME280;15344;52.342;-1.290;2023-06-22T00:36:07;100434.53;;;23.29;76.84
28027;BME280;15344;52.342;-1.290;2023-06-22T00:38:33;100434.25;;;23.60;76.36
28027;BME280;15344;52.342;-1.290;2023-06-22T00:40:58;100438.00;;;23.15;78.93
28027;BME280;15344;52.342;-1.290;2023-06-22T00:43:23;100439.70;;;23.27;78.11
28027;BME280;15344;52.342;-1.290;2023-06-22T00:45:48;100443.53;;;23.27;78.28
28027;BME280;15344;52.342;-1.290;2023-06-22T00:48:14;100442.46;;;23.18;79.41
28027;BME280;15344;52.342;-1.290;2023-06-22T00:50:39;100442.41;;;23.62;77.26
28027;BME280;15344;52.342;-1.290;2023-06-22T00:53:05;100444.59;;;23.53;78.15
28027;BME280;15344;52.342;-1.290;2023-06-22T00:55:29;100444.96;;;23.41;78.68
28027;BME280;15344;52.342;-1.290;2023-06-22T00:57:54;100445.11;;;23.54;78.74
28027;BME280;15344;52.342;-1.290;2023-06-22T01:00:19;100444.53;;;23.44;78.82
28027;BME280;15344;52.342;-1.290;2023-06-22T01:02:44;100445.46;;;23.30;78.80
28027;BME280;15344;52.342;-1.290;2023-06-22T01:05:09;100443.89;;;23.56;78.98
28027;BME280;15344;52.342;-1.290;2023-06-22T01:07:37;100444.87;;;23.73;78.13
28027;BME280;15344;52.342;-1.290;2023-06-22T01:10:07;100449.47;;;23.32;80.39
28027;BME280;15344;52.342;-1.290;2023-06-22T01:12:26;100448.52;;;23.66;78.18
28027;BME280;15344;52.342;-1.290;2023-06-22T01:14:58;100448.50;;;23.62;77.85
28027;BME280;15344;52.342;-1.290;2023-06-22T01:17:17;100453.33;;;23.39;78.57
28027;BME280;15344;52.342;-1.290;2023-06-22T01:19:45;100458.54;;;23.58;78.31
28027;BME280;15344;52.342;-1.290;2023-06-22T01:22:07;100463.60;;;23.66;78.32
28027;BME280;15344;52.342;-1.290;2023-06-22T01:24:39;100470.60;;;23.74;77.63
28027;BME280;15344;52.342;-1.290;2023-06-22T01:27:04;100469.39;;;23.58;76.11
28027;BME280;15344;52.342;-1.290;2023-06-22T01:29:22;100472.92;;;23.17;76.53
28027;BME280;15344;52.342;-1.290;2023-06-22T01:31:48;100469.66;;;22.80;78.35
28027;BME280;15344;52.342;-1.290;2023-06-22T01:34:12;100468.20;;;23.02;78.33
28027;BME280;15344;52.342;-1.290;2023-06-22T01:36:38;100469.44;;;22.96;77.13
28027;BME280;15344;52.342;-1.290;2023-06-22T01:39:04;100473.45;;;23.24;78.80
28027;BME280;15344;52.342;-1.290;2023-06-22T01:41:30;100474.89;;;23.21;77.81
28027;BME280;15344;52.342;-1.290;2023-06-22T01:43:54;100473.25;;;23.10;78.70
28027;BME280;15344;52.342;-1.290;2023-06-22T01:46:19;100472.01;;;23.11;78.95
28027;BME280;15344;52.342;-1.290;2023-06-22T01:48:44;100472.86;;;23.48;77.42
28027;BME280;15344;52.342;-1.290;2023-06-22T01:51:08;100476.60;;;23.20;78.42
28027;BME280;15344;52.342;-1.290;2023-06-22T01:53:34;100474.06;;;23.23;76.62
28027;BME280;15344;52.342;-1.290;2023-06-22T01:55:59;100474.17;;;23.02;76.72
28027;BME280;15344;52.342;-1.290;2023-06-22T01:58:26;100474.31;;;23.06;78.09
28027;BME280;15344;52.342;-1.290;2023-06-22T02:00:53;100473.65;;;23.08;78.55
28027;BME280;15344;52.342;-1.290;2023-06-22T02:03:19;100473.19;;;23.12;78.85
28027;BME280;15344;52.342;-1.290;2023-06-22T02:05:45;100477.72;;;23.08;79.17
28027;BME280;15344;52.342;-1.290;2023-06-22T02:08:09;100481.87;;;22.96;79.37
28027;BME280;15344;52.342;-1.290;2023-06-22T02:10:31;100481.58;;;23.11;79.25
28027;BME280;15344;52.342;-1.290;2023-06-22T02:12:57;100478.66;;;23.00;80.27
28027;BME280;15344;52.342;-1.290;2023-06-22T02:15:20;100475.91;;;22.60;80.86
28027;BME280;15344;52.342;-1.290;2023-06-22T02:17:45;100475.68;;;23.08;80.04
28027;BME280;15344;52.342;-1.290;2023-06-22T02:20:12;100479.22;;;23.08;78.30
28027;BME280;15344;52.342;-1.290;2023-06-22T02:22:36;100476.18;;;22.63;80.38
28027;BME280;15344;52.342;-1.290;2023-06-22T02:25:01;100471.65;;;22.89;77.89
28027;BME280;15344;52.342;-1.290;2023-06-22T02:27:26;100469.61;;;23.29;77.95
28027;BME280;15344;52.342;-1.290;2023-06-22T02:29:52;100471.36;;;22.77;78.67
28027;BME280;15344;52.342;-1.290;2023-06-22T02:32:17;100474.01;;;22.95;78.07
28027;BME280;15344;52.342;-1.290;2023-06-22T02:34:42;100476.60;;;22.89;78.74
28027;BME280;15344;52.342;-1.290;2023-06-22T02:37:07;100472.67;;;23.18;77.60
28027;BME280;15344;52.342;-1.290;2023-06-22T02:39:32;100470.84;;;22.74;77.74
28027;BME280;15344;52.342;-1.290;2023-06-22T02:41:58;100471.22;;;22.73;77.72
28027;BME280;15344;52.342;-1.290;2023-06-22T02:44:23;100474.43;;;22.74;77.57
28027;BME280;15344;52.342;-1.290;2023-06-22T02:46:48;100471.92;;;22.90;77.41
28027;BME280;15344;52.342;-1.290;2023-06-22T02:49:13;100469.88;;;22.89;75.83
28027;BME280;15344;52.342;-1.290;2023-06-22T02:51:39;100467.24;;;22.56;77.31
28027;BME280;15344;52.342;-1.290;2023-06-22T02:54:04;100468.35;;;22.89;77.10
28027;BME280;15344;52.342;-1.290;2023-06-22T02:56:29;100468.42;;;22.62;77.75
28027;BME280;15344;52.342;-1.290;2023-06-22T02:58:54;100468.53;;;22.70;78.23
28027;BME280;15344;52.342;-1.290;2023-06-22T03:01:20;100469.57;;;22.69;79.17
28027;BME280;15344;52.342;-1.290;2023-06-22T03:03:46;100470.72;;;22.64;78.56
28027;BME280;15344;52.342;-1.290;2023-06-22T03:06:11;100468.67;;;22.50;78.54
28027;BME280;15344;52.342;-1.290;2023-06-22T03:08:36;100465.10;;;22.70;80.63
28027;BME280;15344;52.342;-1.290;2023-06-22T03:11:01;100464.90;;;22.60;81.59
28027;BME280;15344;52.342;-1.290;2023-06-22T03:13:27;100462.44;;;22.26;82.36
28027;BME280;15344;52.342;-1.290;2023-06-22T03:15:51;100461.54;;;22.07;83.79
28027;BME280;15344;52.342;-1.290;2023-06-22T03:18:17;100462.54;;;22.43;82.62
28027;BME280;15344;52.342;-1.290;2023-06-22T03:20:42;100466.62;;;22.45;81.99
28027;BME280;15344;52.342;-1.290;2023-06-22T03:23:07;100466.95;;;22.30;83.39
28027;BME280;15344;52.342;-1.290;2023-06-22T03:25:32;100466.15;;;22.86;81.09
28027;BME280;15344;52.342;-1.290;2023-06-22T03:27:58;100464.10;;;22.23;82.72
28027;BME280;15344;52.342;-1.290;2023-06-22T03:30:23;100467.44;;;22.79;81.27
28027;BME280;15344;52.342;-1.290;2023-06-22T03:32:49;100474.25;;;22.42;81.90
28027;BME280;15344;52.342;-1.290;2023-06-22T03:35:15;100475.76;;;22.70;82.36
28027;BME280;15344;52.342;-1.290;2023-06-22T03:37:40;100474.96;;;22.39;83.04
28027;BME280;15344;52.342;-1.290;2023-06-22T03:40:06;100472.06;;;22.71;82.95
28027;BME280;15344;52.342;-1.290;2023-06-22T03:42:30;100471.96;;;22.88;82.15
28027;BME280;15344;52.342;-1.290;2023-06-22T03:44:56;100472.86;;;22.60;82.78
28027;BME280;15344;52.342;-1.290;2023-06-22T03:47:22;100471.58;;;22.87;81.57
28027;BME280;15344;52.342;-1.290;2023-06-22T03:49:47;100470.77;;;22.50;83.00
28027;BME280;15344;52.342;-1.290;2023-06-22T03:52:13;100470.43;;;22.59;82.72
28027;BME280;15344;52.342;-1.290;2023-06-22T03:54:38;100467.93;;;22.25;84.24
28027;BME280;15344;52.342;-1.290;2023-06-22T03:57:04;100466.83;;;22.94;81.99
28027;BME280;15344;52.342;-1.290;2023-06-22T03:59:28;100464.76;;;22.44;83.52
28027;BME280;15344;52.342;-1.290;2023-06-22T04:01:53;100466.07;;;22.52;81.80
28027;BME280;15344;52.342;-1.290;2023-06-22T04:04:18;100466.76;;;22.43;82.13
28027;BME280;15344;52.342;-1.290;2023-06-22T04:06:44;100467.18;;;22.58;80.74
28027;BME280;15344;52.342;-1.290;2023-06-22T04:09:09;100467.89;;;22.40;81.44
28027;BME280;15344;52.342;-1.290;2023-06-22T04:11:34;100467.91;;;22.78;80.73
28027;BME280;15344;52.342;-1.290;2023-06-22T04:14:00;100463.30;;;22.39;81.07
28027;BME280;15344;52.342;-1.290;2023-06-22T04:16:26;100461.75;;;22.35;81.43
28027;BME280;15344;52.342;-1.290;2023-06-22T04:18:51;100459.11;;;22.28;82.94
28027;BME280;15344;52.342;-1.290;2023-06-22T04:21:16;100458.01;;;22.52;81.65
28027;BME280;15344;52.342;-1.290;2023-06-22T04:23:42;100461.62;;;22.46;81.17
28027;BME280;15344;52.342;-1.290;2023-06-22T04:26:08;100461.96;;;22.12;81.66
28027;BME280;15344;52.342;-1.290;2023-06-22T04:28:32;100468.54;;;22.67;80.21
28027;BME280;15344;52.342;-1.290;2023-06-22T04:30:58;100469.38;;;22.49;79.13
28027;BME280;15344;52.342;-1.290;2023-06-22T04:33:23;100467.44;;;22.78;79.29
28027;BME280;15344;52.342;-1.290;2023-06-22T04:35:49;100466.37;;;22.55;79.37
28027;BME280;15344;52.342;-1.290;2023-06-22T04:38:14;100469.61;;;22.68;80.32
28027;BME280;15344;52.342;-1.290;2023-06-22T04:40:40;100467.25;;;22.67;80.05
28027;BME280;15344;52.342;-1.290;2023-06-22T04:43:05;100468.73;;;22.82;80.64
28027;BME280;15344;52.342;-1.290;2023-06-22T04:45:30;100468.47;;;22.25;82.52
28027;BME280;15344;52.342;-1.290;2023-06-22T04:47:55;100473.36;;;22.68;82.24
28027;BME280;15344;52.342;-1.290;2023-06-22T04:50:20;100475.32;;;22.54;81.16
28027;BME280;15344;52.342;-1.290;2023-06-22T04:52:46;100476.47;;;22.61;80.65
28027;BME280;15344;52.342;-1.290;2023-06-22T04:55:11;100479.62;;;22.72;82.41
28027;BME280;15344;52.342;-1.290;2023-06-22T04:57:37;100477.40;;;22.58;82.61
28027;BME280;15344;52.342;-1.290;2023-06-22T05:00:03;100478.51;;;22.80;82.85
28027;BME280;15344;52.342;-1.290;2023-06-22T05:02:27;100479.56;;;22.53;83.31
28027;BME280;15344;52.342;-1.290;2023-06-22T05:04:54;100479.92;;;22.43;82.73
28027;BME280;15344;52.342;-1.290;2023-06-22T05:07:18;100480.18;;;22.88;82.28
28027;BME280;15344;52.342;-1.290;2023-06-22T05:09:44;100479.34;;;23.03;83.57
28027;BME280;15344;52.342;-1.290;2023-06-22T05:12:09;100481.54;;;22.78;82.74
28027;BME280;15344;52.342;-1.290;2023-06-22T05:14:35;100486.26;;;22.90;83.17
28027;BME280;15344;52.342;-1.290;2023-06-22T05:17:00;100488.81;;;23.07;82.44
28027;BME280;15344;52.342;-1.290;2023-06-22T05:19:26;100490.14;;;23.12;82.64
28027;BME280;15344;52.342;-1.290;2023-06-22T05:21:51;100491.58;;;23.20;82.22
28027;BME280;15344;52.342;-1.290;2023-06-22T05:24:16;100493.02;;;23.03;82.22
28027;BME280;15344;52.342;-1.290;2023-06-22T05:26:41;100489.91;;;22.92;82.84
28027;BME280;15344;52.342;-1.290;2023-06-22T05:29:07;100491.80;;;23.11;82.80
28027;BME280;15344;52.342;-1.290;2023-06-22T05:31:32;100495.77;;;23.90;81.83
28027;BME280;15344;52.342;-1.290;2023-06-22T05:33:57;100496.78;;;23.45;81.91
28027;BME280;15344;52.342;-1.290;2023-06-22T05:36:23;100497.10;;;23.49;82.73
28027;BME280;15344;52.342;-1.290;2023-06-22T05:38:48;100499.51;;;23.26;83.75
28027;BME280;15344;52.342;-1.290;2023-06-22T05:41:13;100502.26;;;23.20;83.66
28027;BME280;15344;52.342;-1.290;2023-06-22T05:43:38;100508.28;;;23.25;82.52
28027;BME280;15344;52.342;-1.290;2023-06-22T05:46:04;100507.04;;;23.65;82.51
28027;BME280;15344;52.342;-1.290;2023-06-22T05:48:29;100502.00;;;23.73;80.89
28027;BME280;15344;52.342;-1.290;2023-06-22T05:50:54;100501.10;;;23.43;80.77
28027;BME280;15344;52.342;-1.290;2023-06-22T05:53:20;100504.45;;;23.82;80.70
28027;BME280;15344;52.342;-1.290;2023-06-22T05:55:45;100502.57;;;23.80;80.89
28027;BME280;15344;52.342;-1.290;2023-06-22T05:58:10;100498.48;;;23.92;81.76
28027;BME280;15344;52.342;-1.290;2023-06-22T06:00:36;100497.69;;;23.92;80.86
28027;BME280;15344;52.342;-1.290;2023-06-22T06:03:01;100499.05;;;23.32;82.31
28027;BME280;15344;52.342;-1.290;2023-06-22T06:05:26;100500.10;;;23.98;82.45
28027;BME280;15344;52.342;-1.290;2023-06-22T06:07:51;100504.18;;;23.63;83.45
28027;BME280;15344;52.342;-1.290;2023-06-22T06:10:16;100501.47;;;24.28;81.36
28027;BME280;15344;52.342;-1.290;2023-06-22T06:12:42;100497.46;;;24.24;82.38
28027;BME280;15344;52.342;-1.290;2023-06-22T06:15:08;100502.45;;;24.14;82.13
28027;BME280;15344;52.342;-1.290;2023-06-22T06:17:33;100506.29;;;23.95;82.45
28027;BME280;15344;52.342;-1.290;2023-06-22T06:19:59;100507.39;;;23.98;82.20
28027;BME280;15344;52.342;-1.290;2023-06-22T06:22:23;100509.29;;;24.20;81.41
28027;BME280;15344;52.342;-1.290;2023-06-22T06:24:49;100514.60;;;24.66;81.81
28027;BME280;15344;52.342;-1.290;2023-06-22T06:27:14;100511.66;;;24.56;79.96
28027;BME280;15344;52.342;-1.290;2023-06-22T06:29:39;100518.99;;;23.82;81.57
28027;BME280;15344;52.342;-1.290;2023-06-22T06:32:05;100521.82;;;23.75;81.98
28027;BME280;15344;52.342;-1.290;2023-06-22T06:34:30;100517.95;;;24.78;80.79
28027;BME280;15344;52.342;-1.290;2023-06-22T06:36:55;100517.79;;;24.55;79.13
28027;BME280;15344;52.342;-1.290;2023-06-22T06:39:21;100516.89;;;25.81;75.98
28027;BME280;15344;52.342;-1.290;2023-06-22T06:41:46;100517.37;;;25.73;73.42
28027;BME280;15344;52.342;-1.290;2023-06-22T06:44:12;100515.28;;;26.90;70.46
28027;BME280;15344;52.342;-1.290;2023-06-22T06:46:37;100514.79;;;26.94;66.85
28027;BME280;15344;52.342;-1.290;2023-06-22T06:49:03;100517.17;;;28.00;61.47
28027;BME280;15344;52.342;-1.290;2023-06-22T06:51:29;100514.49;;;28.45;60.11
28027;BME280;15344;52.342;-1.290;2023-06-22T06:53:55;100515.38;;;29.76;57.71
28027;BME280;15344;52.342;-1.290;2023-06-22T06:56:20;100516.63;;;29.87;54.01
28027;BME280;15344;52.342;-1.290;2023-06-22T06:58:46;100512.18;;;31.28;52.39
28027;BME280;15344;52.342;-1.290;2023-06-22T07:01:11;100512.21;;;30.68;51.85
28027;BME280;15344;52.342;-1.290;2023-06-22T07:03:37;100514.40;;;30.86;50.41
28027;BME280;15344;52.342;-1.290;2023-06-22T07:06:03;100510.68;;;30.22;50.36
28027;BME280;15344;52.342;-1.290;2023-06-22T07:08:28;100514.98;;;32.59;51.05
28027;BME280;15344;52.342;-1.290;2023-06-22T07:10:54;100517.52;;;31.28;49.79
28027;BME280;15344;52.342;-1.290;2023-06-22T07:13:20;100517.55;;;32.64;47.94
28027;BME280;15344;52.342;-1.290;2023-06-22T07:15:45;100518.10;;;32.58;48.87
28027;BME280;15344;52.342;-1.290;2023-06-22T07:18:10;100515.90;;;31.27;48.87
28027;BME280;15344;52.342;-1.290;2023-06-22T07:20:36;100512.20;;;32.58;50.24
28027;BME280;15344;52.342;-1.290;2023-06-22T07:23:01;100512.53;;;31.70;50.76
28027;BME280;15344;52.342;-1.290;2023-06-22T07:25:27;100508.86;;;32.29;48.89
28027;BME280;15344;52.342;-1.290;2023-06-22T07:27:58;100506.37;;;30.61;49.88
28027;BME280;15344;52.342;-1.290;2023-06-22T07:30:17;100506.67;;;29.45;50.37
28027;BME280;15344;52.342;-1.290;2023-06-22T07:32:43;100507.92;;;30.17;50.10
28027;BME280;15344;52.342;-1.290;2023-06-22T07:35:09;100515.11;;;31.57;48.26
28027;BME280;15344;52.342;-1.290;2023-06-22T07:37:34;100512.28;;;33.52;46.83
28027;BME280;15344;52.342;-1.290;2023-06-22T07:40:00;100508.82;;;32.55;46.09
28027;BME280;15344;52.342;-1.290;2023-06-22T07:42:26;100508.06;;;34.61;43.57
28027;BME280;15344;52.342;-1.290;2023-06-22T07:44:52;100511.72;;;34.25;42.34
28027;BME280;15344;52.342;-1.290;2023-06-22T07:47:17;100512.79;;;35.38;40.72
28027;BME280;15344;52.342;-1.290;2023-06-22T07:49:43;100512.46;;;34.74;42.39
28027;BME280;15344;52.342;-1.290;2023-06-22T07:52:08;100509.20;;;33.46;40.77
28027;BME280;15344;52.342;-1.290;2023-06-22T07:54:34;100505.51;;;34.51;44.53
28027;BME280;15344;52.342;-1.290;2023-06-22T07:56:59;100501.34;;;34.68;41.06
28027;BME280;15344;52.342;-1.290;2023-06-22T07:59:25;100501.86;;;31.80;42.35
28027;BME280;15344;52.342;-1.290;2023-06-22T08:01:50;100504.06;;;34.39;42.18
28027;BME280;15344;52.342;-1.290;2023-06-22T08:04:16;100503.32;;;33.37;40.10
28027;BME280;15344;52.342;-1.290;2023-06-22T08:06:41;100500.58;;;33.81;40.39
28027;BME280;15344;52.342;-1.290;2023-06-22T08:09:07;100501.90;;;33.18;41.55
28027;BME280;15344;52.342;-1.290;2023-06-22T08:11:32;100504.23;;;34.73;41.11
28027;BME280;15344;52.342;-1.290;2023-06-22T08:13:58;100514.12;;;35.83;40.78
28027;BME280;15344;52.342;-1.290;2023-06-22T08:16:23;100511.57;;;37.09;39.42
28027;BME280;15344;52.342;-1.290;2023-06-22T08:18:48;100510.66;;;34.17;38.19
28027;BME280;15344;52.342;-1.290;2023-06-22T08:21:14;100510.11;;;34.24;37.59
28027;BME280;15344;52.342;-1.290;2023-06-22T08:23:39;100518.08;;;35.57;39.20
28027;BME280;15344;52.342;-1.290;2023-06-22T08:26:05;100513.98;;;37.09;38.78
28027;BME280;15344;52.342;-1.290;2023-06-22T08:28:30;100517.98;;;34.91;37.26
28027;BME280;15344;52.342;-1.290;2023-06-22T08:30:56;100513.10;;;35.05;39.46
28027;BME280;15344;52.342;-1.290;2023-06-22T08:33:22;100508.48;;;34.80;37.42
28027;BME280;15344;52.342;-1.290;2023-06-22T08:35:47;100506.22;;;33.49;37.69
28027;BME280;15344;52.342;-1.290;2023-06-22T08:38:13;100502.57;;;34.45;37.53
28027;BME280;15344;52.342;-1.290;2023-06-22T08:40:38;100502.77;;;34.84;36.82
28027;BME280;15344;52.342;-1.290;2023-06-22T08:43:04;100504.02;;;35.49;37.72
28027;BME280;15344;52.342;-1.290;2023-06-22T08:45:29;100497.80;;;34.55;36.38
28027;BME280;15344;52.342;-1.290;2023-06-22T08:47:55;100495.56;;;36.75;34.03
28027;BME280;15344;52.342;-1.290;2023-06-22T08:50:20;100504.57;;;35.22;33.80
28027;BME280;15344;52.342;-1.290;2023-06-22T08:52:46;100504.47;;;35.89;36.86
28027;BME280;15344;52.342;-1.290;2023-06-22T08:55:11;100498.01;;;37.34;33.74
28027;BME280;15344;52.342;-1.290;2023-06-22T08:57:37;100496.77;;;35.62;35.07
28027;BME280;15344;52.342;-1.290;2023-06-22T09:00:03;100493.87;;;33.55;37.30
28027;BME280;15344;52.342;-1.290;2023-06-22T09:02:28;100498.52;;;35.61;39.01
28027;BME280;15344;52.342;-1.290;2023-06-22T09:04:54;100500.34;;;33.20;40.08
28027;BME280;15344;52.342;-1.290;2023-06-22T09:07:19;100501.01;;;33.73;38.90
28027;BME280;15344;52.342;-1.290;2023-06-22T09:09:45;100494.66;;;32.45;40.33
28027;BME280;15344;52.342;-1.290;2023-06-22T09:12:11;100496.27;;;33.35;41.45
28027;BME280;15344;52.342;-1.290;2023-06-22T09:14:36;100499.47;;;33.34;43.74
28027;BME280;15344;52.342;-1.290;2023-06-22T09:17:02;100503.95;;;33.48;41.85
28027;BME280;15344;52.342;-1.290;2023-06-22T09:19:27;100507.14;;;33.75;41.73
28027;BME280;15344;52.342;-1.290;2023-06-22T09:21:53;100511.16;;;33.14;42.13
28027;BME280;15344;52.342;-1.290;2023-06-22T09:24:18;100511.69;;;29.95;44.14
28027;BME280;15344;52.342;-1.290;2023-06-22T09:26:44;100516.34;;;32.14;41.87
28027;BME280;15344;52.342;-1.290;2023-06-22T09:29:10;100518.73;;;31.09;45.23
28027;BME280;15344;52.342;-1.290;2023-06-22T09:31:36;100520.16;;;31.78;44.67
28027;BME280;15344;52.342;-1.290;2023-06-22T09:34:01;100522.39;;;31.75;44.41
28027;BME280;15344;52.342;-1.290;2023-06-22T09:36:27;100525.60;;;31.35;44.26
28027;BME280;15344;52.342;-1.290;2023-06-22T09:38:53;100529.73;;;31.46;45.91
28027;BME280;15344;52.342;-1.290;2023-06-22T09:41:18;100531.15;;;31.31;46.57
28027;BME280;15344;52.342;-1.290;2023-06-22T09:43:44;100531.62;;;32.15;45.36
28027;BME280;15344;52.342;-1.290;2023-06-22T09:46:10;100531.55;;;32.62;44.48
28027;BME280;15344;52.342;-1.290;2023-06-22T09:48:35;100534.58;;;32.44;46.09
28027;BME280;15344;52.342;-1.290;2023-06-22T09:51:01;100537.54;;;31.64;44.15
28027;BME280;15344;52.342;-1.290;2023-06-22T09:53:27;100539.35;;;31.98;45.27
28027;BME280;15344;52.342;-1.290;2023-06-22T09:55:52;100540.58;;;32.54;42.39
28027;BME280;15344;52.342;-1.290;2023-06-22T09:58:18;100539.82;;;31.66;43.10
28027;BME280;15344;52.342;-1.290;2023-06-22T10:00:43;100541.73;;;32.22;45.23
28027;BME280;15344;52.342;-1.290;2023-06-22T10:03:09;100536.16;;;31.71;44.25
28027;BME280;15344;52.342;-1.290;2023-06-22T10:05:35;100530.83;;;31.92;41.96
28027;BME280;15344;52.342;-1.290;2023-06-22T10:08:00;100531.44;;;32.85;41.13
28027;BME280;15344;52.342;-1.290;2023-06-22T10:10:26;100529.75;;;33.26;39.12
28027;BME280;15344;52.342;-1.290;2023-06-22T10:12:56;100531.17;;;33.34;39.03
28027;BME280;15344;52.342;-1.290;2023-06-22T10:15:18;100531.06;;;32.41;37.18
28027;BME280;15344;52.342;-1.290;2023-06-22T10:17:43;100531.39;;;34.34;37.96
28027;BME280;15344;52.342;-1.290;2023-06-22T10:20:09;100532.81;;;36.35;35.65
28027;BME280;15344;52.342;-1.290;2023-06-22T10:22:34;100526.96;;;34.66;32.61
28027;BME280;15344;52.342;-1.290;2023-06-22T10:25:00;100531.51;;;37.10;33.24
28027;BME280;15344;52.342;-1.290;2023-06-22T10:27:25;100535.29;;;35.97;34.24
28027;BME280;15344;52.342;-1.290;2023-06-22T10:29:51;100537.15;;;35.88;32.68
28027;BME280;15344;52.342;-1.290;2023-06-22T10:32:16;100539.89;;;35.84;33.47
28027;BME280;15344;52.342;-1.290;2023-06-22T10:34:42;100534.19;;;37.01;32.14
28027;BME280;15344;52.342;-1.290;2023-06-22T10:37:07;100535.35;;;36.17;31.41
28027;BME280;15344;52.342;-1.290;2023-06-22T10:39:33;100530.91;;;36.76;31.92
28027;BME280;15344;52.342;-1.290;2023-06-22T10:41:58;100535.57;;;34.72;32.09
28027;BME280;15344;52.342;-1.290;2023-06-22T10:44:24;100530.35;;;34.04;32.94
28027;BME280;15344;52.342;-1.290;2023-06-22T10:46:50;100533.46;;;36.38;34.16
28027;BME280;15344;52.342;-1.290;2023-06-22T10:49:15;100524.00;;;35.66;32.28
28027;BME280;15344;52.342;-1.290;2023-06-22T10:51:41;100519.06;;;36.28;32.25
28027;BME280;15344;52.342;-1.290;2023-06-22T10:54:06;100520.63;;;35.83;31.22
28027;BME280;15344;52.342;-1.290;2023-06-22T10:56:32;100521.39;;;35.49;33.32
28027;BME280;15344;52.342;-1.290;2023-06-22T10:58:57;100525.44;;;35.13;33.23
28027;BME280;15344;52.342;-1.290;2023-06-22T11:01:23;100527.40;;;36.78;31.72
28027;BME280;15344;52.342;-1.290;2023-06-22T11:03:48;100529.06;;;36.58;30.57
28027;BME280;15344;52.342;-1.290;2023-06-22T11:06:14;100529.77;;;37.36;31.19
28027;BME280;15344;52.342;-1.290;2023-06-22T11:08:39;100530.89;;;38.29;31.98
28027;BME280;15344;52.342;-1.290;2023-06-22T11:11:05;100524.60;;;36.63;31.66
28027;BME280;15344;52.342;-1.290;2023-06-22T11:13:30;100529.23;;;36.10;31.89
28027;BME280;15344;52.342;-1.290;2023-06-22T11:15:56;100519.70;;;34.06;32.10
28027;BME280;15344;52.342;-1.290;2023-06-22T11:18:22;100517.87;;;34.00;32.91
28027;BME280;15344;52.342;-1.290;2023-06-22T11:20:47;100514.99;;;33.99;35.03
28027;BME280;15344;52.342;-1.290;2023-06-22T11:23:13;100517.77;;;33.27;36.67
28027;BME280;15344;52.342;-1.290;2023-06-22T11:25:38;100521.01;;;33.67;37.38
28027;BME280;15344;52.342;-1.290;2023-06-22T11:28:05;100522.11;;;34.67;36.80
28027;BME280;15344;52.342;-1.290;2023-06-22T11:30:30;100522.06;;;34.99;35.67
28027;BME280;15344;52.342;-1.290;2023-06-22T11:32:56;100518.62;;;32.89;38.05
28027;BME280;15344;52.342;-1.290;2023-06-22T11:35:21;100517.54;;;33.49;37.08
28027;BME280;15344;52.342;-1.290;2023-06-22T11:37:46;100520.33;;;33.61;36.50
28027;BME280;15344;52.342;-1.290;2023-06-22T11:40:13;100524.95;;;32.15;37.32
28027;BME280;15344;52.342;-1.290;2023-06-22T11:42:38;100515.33;;;32.53;37.86
28027;BME280;15344;52.342;-1.290;2023-06-22T11:45:06;100516.47;;;33.90;39.90
28027;BME280;15344;52.342;-1.290;2023-06-22T11:47:29;100509.80;;;33.38;38.70
28027;BME280;15344;52.342;-1.290;2023-06-22T11:49:55;100509.81;;;32.99;37.20
28027;BME280;15344;52.342;-1.290;2023-06-22T11:52:21;100510.15;;;33.48;35.76
28027;BME280;15344;52.342;-1.290;2023-06-22T11:54:46;100509.69;;;33.33;37.32
28027;BME280;15344;52.342;-1.290;2023-06-22T11:57:12;100509.51;;;32.89;37.80
28027;BME280;15344;52.342;-1.290;2023-06-22T11:59:37;100504.84;;;33.26;37.34
28027;BME280;15344;52.342;-1.290;2023-06-22T12:02:04;100501.45;;;32.58;37.91
28027;BME280;15344;52.342;-1.290;2023-06-22T12:04:28;100503.29;;;33.69;37.06
28027;BME280;15344;52.342;-1.290;2023-06-22T12:06:54;100503.61;;;32.76;36.17
28027;BME280;15344;52.342;-1.290;2023-06-22T12:09:20;100503.44;;;33.17;35.57
28027;BME280;15344;52.342;-1.290;2023-06-22T12:11:46;100501.69;;;30.36;37.08
28027;BME280;15344;52.342;-1.290;2023-06-22T12:14:11;100502.24;;;31.81;37.54
28027;BME280;15344;52.342;-1.290;2023-06-22T12:16:37;100502.78;;;31.88;36.83
28027;BME280;15344;52.342;-1.290;2023-06-22T12:19:02;100502.52;;;31.07;39.00
28027;BME280;15344;52.342;-1.290;2023-06-22T12:21:28;100501.80;;;31.80;38.33
28027;BME280;15344;52.342;-1.290;2023-06-22T12:23:54;100496.16;;;33.09;37.42
28027;BME280;15344;52.342;-1.290;2023-06-22T12:26:19;100493.77;;;32.10;37.59
28027;BME280;15344;52.342;-1.290;2023-06-22T12:28:45;100494.58;;;32.25;36.20
28027;BME280;15344;52.342;-1.290;2023-06-22T12:31:11;100494.35;;;33.29;35.50